createdAt,value
2019-05-18T00:00:20.496Z,11.42
2019-05-18T00:02:47.915Z,11.36
2019-05-18T00:05:15.438Z,11.38
2019-05-18T00:07:43.026Z,11.31
2019-05-18T00:10:12.385Z,11.32
2019-05-18T00:12:39.826Z,11.30
2019-05-18T00:15:08.327Z,11.18
2019-05-18T00:17:35.786Z,11.39
2019-05-18T00:20:03.504Z,11.38
2019-05-18T00:22:30.952Z,11.60
2019-05-18T00:24:58.376Z,11.46
2019-05-18T00:27:25.833Z,11.19
2019-05-18T00:29:53.302Z,11.31
2019-05-18T00:32:20.730Z,11.44
2019-05-18T00:34:48.537Z,11.48
2019-05-18T00:37:15.924Z,11.37
2019-05-18T00:39:43.418Z,11.32
2019-05-18T00:42:10.921Z,11.35
2019-05-18T00:44:38.401Z,11.30
2019-05-18T00:47:05.807Z,11.26
2019-05-18T00:49:33.430Z,11.26
2019-05-18T00:52:00.870Z,11.16
2019-05-18T00:54:28.280Z,11.26
2019-05-18T00:56:55.728Z,11.34
2019-05-18T00:59:23.509Z,11.58
2019-05-18T01:01:50.946Z,11.65
2019-05-18T01:04:18.422Z,11.70
2019-05-18T01:06:45.806Z,11.84
2019-05-18T01:09:13.262Z,11.93
2019-05-18T01:11:40.714Z,11.99
2019-05-18T01:14:08.077Z,11.91
2019-05-18T01:16:35.583Z,11.71
2019-05-18T01:19:03.159Z,11.92
2019-05-18T01:21:30.546Z,11.93
2019-05-18T01:23:57.971Z,11.88
2019-05-18T01:26:25.946Z,11.76
2019-05-18T01:28:56.308Z,11.58
2019-05-18T01:31:23.773Z,11.71
2019-05-18T01:33:51.120Z,11.77
2019-05-18T01:36:18.554Z,11.79
2019-05-18T01:38:46.032Z,11.54
2019-05-18T01:41:13.524Z,11.51
2019-05-18T01:43:40.975Z,11.47
2019-05-18T01:46:08.437Z,11.42
2019-05-18T01:48:35.907Z,11.63
2019-05-18T01:51:03.387Z,11.66
2019-05-18T01:53:30.831Z,11.58
2019-05-18T01:55:58.324Z,11.56
2019-05-18T01:58:25.823Z,11.53
2019-05-18T02:00:53.477Z,11.19
2019-05-18T02:03:20.938Z,11.12
2019-05-18T02:05:48.338Z,11.18
2019-05-18T02:08:15.792Z,11.26
2019-05-18T02:10:43.246Z,11.35
2019-05-18T02:13:10.680Z,11.17
2019-05-18T02:15:38.065Z,10.91
2019-05-18T02:18:05.494Z,10.71
2019-05-18T02:20:32.946Z,10.51
2019-05-18T02:23:00.339Z,10.34
2019-05-18T02:25:27.822Z,10.20
2019-05-18T02:27:55.257Z,10.08
2019-05-18T02:30:22.815Z,9.99
2019-05-18T02:32:50.218Z,9.94
2019-05-18T02:35:17.751Z,9.92
2019-05-18T02:37:45.244Z,9.88
2019-05-18T02:40:12.883Z,9.91
2019-05-18T02:42:40.352Z,9.92
2019-05-18T02:45:08.188Z,9.97
2019-05-18T02:47:35.648Z,9.98
2019-05-18T02:50:03.235Z,10.23
2019-05-18T02:52:30.680Z,10.38
2019-05-18T02:54:58.166Z,10.30
2019-05-18T02:57:25.584Z,10.41
2019-05-18T02:59:53.047Z,10.72
2019-05-18T03:02:20.621Z,10.77
2019-05-18T03:04:48.073Z,10.70
2019-05-18T03:07:15.481Z,10.64
2019-05-18T03:09:43.060Z,10.52
2019-05-18T03:12:10.524Z,10.55
2019-05-18T03:14:37.946Z,10.43
2019-05-18T03:17:05.405Z,10.35
2019-05-18T03:19:32.846Z,10.32
2019-05-18T03:22:01.186Z,10.29
2019-05-18T03:24:28.955Z,10.22
2019-05-18T03:26:56.461Z,10.23
2019-05-18T03:29:23.922Z,10.24
2019-05-18T03:31:51.350Z,10.25
2019-05-18T03:34:18.756Z,10.25
2019-05-18T03:36:46.249Z,10.20
2019-05-18T03:39:13.694Z,10.17
2019-05-18T03:41:41.074Z,10.14
2019-05-18T03:44:08.539Z,10.07
2019-05-18T03:46:36.124Z,9.94
2019-05-18T03:49:03.497Z,9.71
2019-05-18T03:51:30.973Z,9.62
2019-05-18T03:53:58.414Z,9.53
2019-05-18T03:56:25.798Z,9.44
2019-05-18T03:58:53.258Z,9.45
2019-05-18T04:01:20.745Z,9.49
2019-05-18T04:03:48.382Z,9.69
2019-05-18T04:06:15.760Z,9.70
2019-05-18T04:08:43.237Z,9.68
2019-05-18T04:11:10.767Z,9.76
2019-05-18T04:13:38.201Z,9.80
2019-05-18T04:16:05.652Z,10.23
2019-05-18T04:18:33.127Z,10.30
2019-05-18T04:21:06.122Z,10.32
2019-05-18T04:23:33.472Z,10.23
2019-05-18T04:26:01.041Z,10.44
2019-05-18T04:28:28.521Z,10.39
2019-05-18T04:30:55.973Z,10.31
2019-05-18T04:33:23.405Z,10.41
2019-05-18T04:35:50.875Z,10.49
2019-05-18T04:38:18.290Z,10.67
2019-05-18T04:40:45.748Z,10.98
2019-05-18T04:43:13.205Z,11.04
2019-05-18T04:45:40.730Z,10.99
2019-05-18T04:48:08.100Z,11.16
2019-05-18T04:50:35.555Z,11.21
2019-05-18T04:53:03.074Z,11.22
2019-05-18T04:55:30.463Z,11.17
2019-05-18T04:57:57.907Z,11.16
2019-05-18T05:00:25.329Z,11.11
2019-05-18T05:02:52.803Z,10.99
2019-05-18T05:05:20.351Z,10.98
2019-05-18T05:07:47.817Z,11.16
2019-05-18T05:10:15.191Z,10.90
2019-05-18T05:12:42.647Z,11.24
2019-05-18T05:15:10.314Z,11.37
2019-05-18T05:17:37.668Z,11.26
2019-05-18T05:20:18.730Z,11.25
2019-05-18T05:22:35.093Z,11.13
2019-05-18T05:25:02.789Z,11.23
2019-05-18T05:27:30.308Z,11.38
2019-05-18T05:29:57.723Z,11.61
2019-05-18T05:32:25.189Z,11.75
2019-05-18T05:34:52.654Z,11.48
2019-05-18T05:37:20.060Z,11.47
2019-05-18T05:39:47.602Z,11.48
2019-05-18T05:42:15.104Z,11.55
2019-05-18T05:44:42.534Z,11.49
2019-05-18T05:47:09.969Z,11.28
2019-05-18T05:49:37.508Z,11.22
2019-05-18T05:52:04.981Z,11.01
2019-05-18T05:54:32.477Z,10.85
2019-05-18T05:57:00.944Z,10.95
2019-05-18T05:59:29.561Z,11.25
2019-05-18T06:01:57.032Z,11.56
2019-05-18T06:04:24.397Z,11.85
2019-05-18T06:06:51.977Z,12.03
2019-05-18T06:09:19.407Z,12.62
2019-05-18T06:11:46.771Z,12.63
2019-05-18T06:14:14.239Z,12.48
2019-05-18T06:16:41.694Z,12.44
2019-05-18T06:19:09.173Z,12.49
2019-05-18T06:21:36.691Z,12.45
2019-05-18T06:24:04.170Z,12.43
2019-05-18T06:26:31.593Z,12.42
2019-05-18T06:28:59.026Z,12.38
2019-05-18T06:31:26.457Z,12.46
2019-05-18T06:33:53.895Z,12.42
2019-05-18T06:36:21.293Z,12.42
2019-05-18T06:38:49.444Z,12.59
2019-05-18T06:41:16.913Z,12.49
2019-05-18T06:43:44.367Z,12.66
2019-05-18T06:46:11.854Z,13.03
2019-05-18T06:48:39.278Z,13.95
2019-05-18T06:51:07.786Z,14.73
2019-05-18T06:53:35.385Z,14.65
2019-05-18T06:56:03.649Z,14.38
2019-05-18T06:58:31.771Z,13.90
2019-05-18T07:00:59.293Z,13.46
2019-05-18T07:03:26.757Z,13.29
2019-05-18T07:05:54.311Z,13.63
2019-05-18T07:08:21.848Z,14.38
2019-05-18T07:10:49.243Z,14.43
2019-05-18T07:13:16.735Z,14.21
2019-05-18T07:15:44.444Z,14.09
2019-05-18T07:18:11.850Z,14.52
2019-05-18T07:20:39.289Z,15.14
2019-05-18T07:23:06.719Z,15.42
2019-05-18T07:25:34.221Z,15.85
2019-05-18T07:28:02.193Z,16.20
2019-05-18T07:30:29.875Z,16.28
2019-05-18T07:32:57.334Z,16.45
2019-05-18T07:35:24.783Z,16.54
2019-05-18T07:37:52.241Z,16.27
2019-05-18T07:40:19.803Z,16.69
2019-05-18T07:42:47.332Z,16.76
2019-05-18T07:45:15.199Z,16.85
2019-05-18T07:47:42.642Z,16.80
2019-05-18T07:50:10.204Z,16.89
2019-05-18T07:52:37.642Z,16.92
2019-05-18T07:55:05.269Z,16.88
2019-05-18T07:57:32.784Z,16.64
2019-05-18T08:00:00.193Z,16.53
2019-05-18T08:02:27.704Z,15.98
2019-05-18T08:04:55.104Z,15.93
2019-05-18T08:07:22.526Z,15.99
2019-05-18T08:09:50.159Z,16.00
2019-05-18T08:12:17.607Z,15.87
2019-05-18T08:14:45.009Z,15.78
2019-05-18T08:17:12.462Z,15.83
2019-05-18T08:19:39.925Z,16.08
2019-05-18T08:22:07.321Z,16.07
2019-05-18T08:24:34.820Z,16.00
2019-05-18T08:27:02.583Z,15.83
2019-05-18T08:29:30.769Z,15.73
2019-05-18T08:31:58.318Z,15.42
2019-05-18T08:34:25.829Z,15.49
2019-05-18T08:36:53.193Z,15.61
2019-05-18T08:39:20.698Z,15.67
2019-05-18T08:41:48.873Z,15.78
2019-05-18T08:44:16.675Z,15.85
2019-05-18T08:46:44.132Z,15.99
2019-05-18T08:49:11.980Z,16.05
2019-05-18T08:51:39.421Z,16.14
2019-05-18T08:54:06.892Z,16.24
2019-05-18T08:56:34.374Z,16.39
2019-05-18T08:59:01.837Z,16.80
2019-05-18T09:01:29.257Z,17.04
2019-05-18T09:03:56.752Z,17.06
2019-05-18T09:06:24.210Z,17.21
2019-05-18T09:08:51.648Z,17.29
2019-05-18T09:11:19.273Z,17.71
2019-05-18T09:13:46.729Z,17.81
2019-05-18T09:16:14.223Z,17.99
2019-05-18T09:18:41.606Z,18.02
2019-05-18T09:21:09.054Z,17.89
2019-05-18T09:23:36.547Z,18.39
2019-05-18T09:26:03.938Z,18.91
2019-05-18T09:28:31.423Z,19.08
2019-05-18T09:30:58.881Z,19.27
2019-05-18T09:33:26.285Z,19.03
2019-05-18T09:35:53.719Z,19.02
2019-05-18T09:38:21.992Z,19.20
2019-05-18T09:40:49.532Z,19.45
2019-05-18T09:43:16.974Z,19.42
2019-05-18T09:45:44.564Z,19.52
2019-05-18T09:48:11.929Z,19.40
2019-05-18T09:50:39.430Z,19.74
2019-05-18T09:53:06.866Z,20.23
2019-05-18T09:55:34.243Z,20.39
2019-05-18T09:58:01.681Z,20.54
2019-05-18T10:00:36.865Z,20.79
2019-05-18T10:02:58.750Z,21.10
2019-05-18T10:05:26.167Z,21.24
2019-05-18T10:07:53.623Z,21.57
2019-05-18T10:10:21.299Z,21.69
2019-05-18T10:12:48.786Z,21.84
2019-05-18T10:15:16.611Z,22.24
2019-05-18T10:17:44.029Z,22.65
2019-05-18T10:20:12.159Z,22.80
2019-05-18T10:22:53.518Z,22.72
2019-05-18T10:25:10.164Z,22.85
2019-05-18T10:27:37.635Z,23.06
2019-05-18T10:30:06.075Z,22.91
2019-05-18T10:32:33.517Z,22.93
2019-05-18T10:35:00.963Z,22.81
2019-05-18T10:37:28.399Z,22.68
2019-05-18T10:39:55.826Z,22.89
2019-05-18T10:42:23.268Z,22.79
2019-05-18T10:44:50.702Z,22.82
2019-05-18T10:47:18.067Z,22.73
2019-05-18T10:49:45.528Z,22.83
2019-05-18T10:52:12.968Z,23.04
2019-05-18T10:54:40.453Z,23.06
2019-05-18T10:57:07.878Z,23.21
2019-05-18T10:59:35.233Z,23.41
2019-05-18T11:02:03.230Z,23.39
2019-05-18T11:04:30.968Z,23.45
2019-05-18T11:06:58.557Z,23.47
2019-05-18T11:09:25.999Z,23.57
2019-05-18T11:11:53.465Z,23.57
2019-05-18T11:14:20.997Z,23.69
2019-05-18T11:16:48.461Z,23.83
2019-05-18T11:19:15.994Z,23.75
2019-05-18T11:21:43.418Z,23.64
2019-05-18T11:24:10.819Z,23.59
2019-05-18T11:26:38.368Z,23.80
2019-05-18T11:29:05.915Z,24.00
2019-05-18T11:31:33.439Z,24.12
2019-05-18T11:34:00.903Z,24.25
2019-05-18T11:36:28.336Z,24.24
2019-05-18T11:38:55.786Z,24.19
2019-05-18T11:41:23.224Z,24.04
2019-05-18T11:43:50.714Z,24.07
2019-05-18T11:46:18.097Z,24.19
2019-05-18T11:48:45.633Z,23.95
2019-05-18T11:51:13.079Z,23.77
2019-05-18T11:53:40.605Z,23.66
2019-05-18T11:56:08.062Z,23.53
2019-05-18T11:58:35.581Z,23.63
2019-05-18T12:01:03.151Z,23.80
2019-05-18T12:03:30.602Z,23.98
2019-05-18T12:05:58.099Z,24.05
2019-05-18T12:08:25.528Z,24.23
2019-05-18T12:10:56.095Z,24.45
2019-05-18T12:13:26.110Z,24.59
2019-05-18T12:15:53.692Z,24.62
2019-05-18T12:18:21.275Z,24.78
2019-05-18T12:20:48.743Z,25.04
2019-05-18T12:23:16.115Z,24.96
2019-05-18T12:25:43.902Z,24.83
2019-05-18T12:28:11.378Z,24.85
2019-05-18T12:30:39.161Z,24.97
2019-05-18T12:33:06.588Z,24.98
2019-05-18T12:35:34.078Z,25.10
2019-05-18T12:38:01.565Z,25.16
2019-05-18T12:40:29.240Z,25.10
2019-05-18T12:42:56.606Z,25.08
2019-05-18T12:45:24.548Z,25.21
2019-05-18T12:47:51.962Z,25.39
2019-05-18T12:50:21.524Z,25.46
2019-05-18T12:52:49.059Z,25.44
2019-05-18T12:55:17.210Z,25.42
2019-05-18T12:57:44.697Z,25.31
2019-05-18T13:00:14.375Z,25.38
2019-05-18T13:02:41.941Z,25.40
2019-05-18T13:05:09.989Z,25.41
2019-05-18T13:07:37.393Z,25.47
2019-05-18T13:10:06.028Z,25.56
2019-05-18T13:12:33.470Z,25.56
2019-05-18T13:15:00.912Z,25.78
2019-05-18T13:17:28.476Z,25.99
2019-05-18T13:19:55.916Z,26.16
2019-05-18T13:22:23.393Z,26.35
2019-05-18T13:24:52.249Z,26.56
2019-05-18T13:27:19.965Z,26.57
2019-05-18T13:29:47.439Z,26.51
2019-05-18T13:32:15.037Z,26.41
2019-05-18T13:34:42.461Z,26.14
2019-05-18T13:37:10.005Z,25.94
2019-05-18T13:39:37.468Z,25.81
2019-05-18T13:42:04.954Z,25.64
2019-05-18T13:44:32.495Z,25.48
2019-05-18T13:46:59.918Z,25.46
2019-05-18T13:49:27.320Z,25.26
2019-05-18T13:51:54.812Z,25.14
2019-05-18T13:54:22.277Z,24.91
2019-05-18T13:56:49.746Z,24.70
2019-05-18T13:59:17.182Z,24.63
2019-05-18T14:01:44.627Z,24.58
2019-05-18T14:04:12.093Z,24.47
2019-05-18T14:06:39.573Z,24.38
2019-05-18T14:09:07.020Z,24.32
2019-05-18T14:11:34.395Z,24.41
2019-05-18T14:14:01.974Z,24.69
2019-05-18T14:16:29.522Z,24.69
2019-05-18T14:18:57.006Z,24.70
2019-05-18T14:21:24.642Z,24.70
2019-05-18T14:23:52.098Z,24.76
2019-05-18T14:26:19.534Z,24.81
2019-05-18T14:28:46.988Z,24.83
2019-05-18T14:31:14.427Z,24.87
2019-05-18T14:33:41.903Z,24.79
2019-05-18T14:36:09.382Z,24.70
2019-05-18T14:38:36.866Z,24.55
2019-05-18T14:41:04.425Z,24.57
2019-05-18T14:43:31.805Z,24.64
2019-05-18T14:45:59.260Z,24.84
2019-05-18T14:48:26.718Z,24.80
2019-05-18T14:50:54.146Z,24.77
2019-05-18T14:53:21.529Z,24.67
2019-05-18T14:55:49.042Z,24.59
2019-05-18T14:58:16.466Z,24.60
2019-05-18T15:00:44.098Z,24.65
2019-05-18T15:03:11.537Z,24.76
2019-05-18T15:05:39.096Z,24.83
2019-05-18T15:08:06.533Z,24.64
2019-05-18T15:10:34.026Z,24.59
2019-05-18T15:13:01.465Z,24.54
2019-05-18T15:15:28.907Z,24.53
2019-05-18T15:17:56.251Z,24.67
2019-05-18T15:20:23.908Z,24.58
2019-05-18T15:22:51.447Z,24.45
2019-05-18T15:25:19.069Z,24.45
2019-05-18T15:27:46.471Z,24.37
2019-05-18T15:30:14.086Z,24.33
2019-05-18T15:32:41.522Z,24.40
2019-05-18T15:35:09.383Z,24.42
2019-05-18T15:37:36.855Z,24.29
2019-05-18T15:40:04.589Z,24.23
2019-05-18T15:42:32.031Z,24.20
2019-05-18T15:44:59.464Z,24.29
2019-05-18T15:47:26.914Z,24.26
2019-05-18T15:49:54.355Z,24.25
2019-05-18T15:52:21.776Z,24.20
2019-05-18T15:54:49.219Z,24.22
2019-05-18T15:57:16.783Z,24.28
2019-05-18T15:59:44.230Z,24.32
2019-05-18T16:02:11.702Z,24.27
2019-05-18T16:04:39.188Z,24.34
2019-05-18T16:07:06.612Z,24.45
2019-05-18T16:09:34.090Z,24.50
2019-05-18T16:12:01.548Z,24.56
2019-05-18T16:14:29.022Z,24.50
2019-05-18T16:16:56.585Z,24.49
2019-05-18T16:19:24.056Z,24.38
2019-05-18T16:21:51.554Z,24.53
2019-05-18T16:24:19.072Z,24.55
2019-05-18T16:26:46.509Z,24.53
2019-05-18T16:29:14.070Z,24.65
2019-05-18T16:31:41.660Z,24.54
2019-05-18T16:34:09.168Z,24.57
2019-05-18T16:36:36.640Z,24.61
2019-05-18T16:39:06.136Z,24.52
2019-05-18T16:41:33.676Z,24.55
2019-05-18T16:44:01.562Z,24.53
2019-05-18T16:46:29.007Z,24.47
2019-05-18T16:48:56.747Z,24.33
2019-05-18T16:51:24.196Z,24.36
2019-05-18T16:53:51.576Z,24.37
2019-05-18T16:56:19.113Z,24.16
2019-05-18T16:58:46.570Z,24.04
2019-05-18T17:01:13.947Z,23.99
2019-05-18T17:03:41.420Z,24.03
2019-05-18T17:06:08.831Z,23.96
2019-05-18T17:08:36.217Z,23.73
2019-05-18T17:11:03.637Z,23.64
2019-05-18T17:13:31.078Z,23.63
2019-05-18T17:15:58.523Z,23.70
2019-05-18T17:18:25.881Z,23.68
2019-05-18T17:20:53.361Z,23.65
2019-05-18T17:23:20.940Z,23.50
2019-05-18T17:25:48.472Z,23.43
2019-05-18T17:28:15.843Z,23.37
2019-05-18T17:30:43.310Z,23.30
2019-05-18T17:33:10.757Z,23.16
2019-05-18T17:35:38.161Z,23.19
2019-05-18T17:38:05.588Z,23.12
2019-05-18T17:40:33.035Z,22.88
2019-05-18T17:43:00.447Z,23.01
2019-05-18T17:45:27.919Z,23.04
2019-05-18T17:47:55.414Z,23.05
2019-05-18T17:50:22.852Z,22.93
2019-05-18T17:52:50.231Z,22.91
2019-05-18T17:55:17.847Z,23.00
2019-05-18T17:57:45.445Z,22.81
2019-05-18T18:00:13.608Z,22.79
2019-05-18T18:02:40.970Z,22.95
2019-05-18T18:05:09.104Z,22.83
2019-05-18T18:07:36.743Z,22.71
2019-05-18T18:10:05.293Z,22.51
2019-05-18T18:12:32.743Z,22.59
2019-05-18T18:15:00.169Z,22.47
2019-05-18T18:17:27.557Z,22.45
2019-05-18T18:19:54.989Z,22.38
2019-05-18T18:22:23.897Z,22.29
2019-05-18T18:24:51.542Z,22.13
2019-05-18T18:27:25.102Z,22.10
2019-05-18T18:29:48.286Z,21.98
2019-05-18T18:32:16.068Z,21.98
2019-05-18T18:34:43.597Z,21.75
2019-05-18T18:37:11.039Z,21.61
2019-05-18T18:39:38.508Z,21.37
2019-05-18T18:42:06.072Z,21.33
2019-05-18T18:44:33.504Z,21.17
2019-05-18T18:47:00.918Z,21.18
2019-05-18T18:49:28.299Z,21.29
2019-05-18T18:51:55.770Z,21.31
2019-05-18T18:54:23.187Z,21.45
2019-05-18T18:56:50.613Z,21.52
2019-05-18T18:59:18.024Z,21.36
2019-05-18T19:01:45.454Z,21.17
2019-05-18T19:04:12.852Z,21.09
2019-05-18T19:06:40.329Z,20.92
2019-05-18T19:09:07.945Z,20.88
2019-05-18T19:11:35.431Z,20.61
2019-05-18T19:14:03.068Z,20.64
2019-05-18T19:16:30.483Z,20.53
2019-05-18T19:18:57.985Z,20.33
2019-05-18T19:21:25.393Z,20.35
2019-05-18T19:23:52.858Z,20.16
2019-05-18T19:26:20.564Z,20.10
2019-05-18T19:28:47.979Z,19.99
2019-05-18T19:31:16.024Z,19.86
2019-05-18T19:33:44.002Z,19.71
2019-05-18T19:36:11.457Z,19.70
2019-05-18T19:38:38.986Z,19.67
2019-05-18T19:41:06.378Z,19.75
2019-05-18T19:43:33.803Z,19.64
2019-05-18T19:46:01.259Z,19.52
2019-05-18T19:48:28.670Z,19.51
2019-05-18T19:50:56.228Z,19.32
2019-05-18T19:53:23.713Z,19.07
2019-05-18T19:55:51.104Z,18.96
2019-05-18T19:58:18.592Z,18.95
2019-05-18T20:00:46.190Z,18.97
2019-05-18T20:03:13.692Z,18.90
2019-05-18T20:05:41.174Z,18.58
2019-05-18T20:08:08.566Z,18.43
2019-05-18T20:10:36.031Z,18.40
2019-05-18T20:13:03.486Z,18.32
2019-05-18T20:15:30.945Z,18.28
2019-05-18T20:17:58.373Z,18.40
2019-05-18T20:20:27.840Z,18.31
2019-05-18T20:22:55.294Z,18.24
2019-05-18T20:25:22.877Z,18.40
2019-05-18T20:27:50.348Z,18.41
2019-05-18T20:30:18.637Z,18.49
2019-05-18T20:32:46.154Z,18.28
2019-05-18T20:35:13.895Z,18.05
2019-05-18T20:37:41.476Z,17.81
2019-05-18T20:40:09.680Z,17.56
2019-05-18T20:42:37.777Z,17.32
2019-05-18T20:45:05.864Z,17.19
2019-05-18T20:47:33.451Z,17.22
2019-05-18T20:50:00.973Z,17.33
2019-05-18T20:52:28.313Z,17.56
2019-05-18T20:54:55.802Z,17.59
2019-05-18T20:57:23.219Z,17.37
2019-05-18T20:59:50.683Z,17.16
2019-05-18T21:02:18.227Z,17.25
2019-05-18T21:04:45.587Z,17.48
2019-05-18T21:07:13.067Z,17.30
2019-05-18T21:09:40.482Z,17.22
2019-05-18T21:12:07.851Z,17.27
2019-05-18T21:14:35.256Z,17.23
2019-05-18T21:17:02.697Z,17.08
2019-05-18T21:19:30.074Z,16.92
2019-05-18T21:21:57.495Z,16.81
2019-05-18T21:24:24.959Z,16.71
2019-05-18T21:26:52.313Z,16.67
2019-05-18T21:29:19.736Z,16.59
2019-05-18T21:31:47.238Z,16.54
2019-05-18T21:34:14.868Z,16.58
2019-05-18T21:36:42.269Z,16.76
2019-05-18T21:39:09.691Z,16.83
2019-05-18T21:41:37.117Z,16.87
2019-05-18T21:44:04.572Z,16.98
2019-05-18T21:46:31.998Z,17.02
2019-05-18T21:48:59.429Z,17.01
2019-05-18T21:51:26.816Z,16.93
2019-05-18T21:53:54.239Z,16.89
2019-05-18T21:56:21.695Z,16.78
2019-05-18T21:58:49.052Z,16.66
2019-05-18T22:01:16.588Z,16.68
2019-05-18T22:03:48.059Z,16.69
2019-05-18T22:06:13.267Z,16.82
2019-05-18T22:08:40.696Z,16.85
2019-05-18T22:11:08.139Z,16.77
2019-05-18T22:13:35.597Z,16.64
2019-05-18T22:16:02.975Z,16.70
2019-05-18T22:18:30.406Z,16.03
2019-05-18T22:20:57.829Z,17.12
2019-05-18T22:23:25.256Z,17.23
2019-05-18T22:25:52.707Z,17.27
2019-05-18T22:28:20.176Z,17.25
2019-05-18T22:30:47.654Z,17.29
2019-05-18T22:33:15.086Z,17.30
2019-05-18T22:35:42.783Z,17.14
2019-05-18T22:38:10.255Z,16.98
2019-05-18T22:40:37.605Z,16.85
2019-05-18T22:43:05.072Z,16.79
2019-05-18T22:45:32.530Z,16.96
2019-05-18T22:47:59.922Z,16.98
2019-05-18T22:50:27.656Z,17.18
2019-05-18T22:52:55.180Z,17.40
2019-05-18T22:55:22.597Z,17.33
2019-05-18T22:57:50.010Z,17.30
2019-05-18T23:00:17.614Z,17.38
2019-05-18T23:02:45.059Z,17.62
2019-05-18T23:05:12.573Z,17.39
2019-05-18T23:07:39.982Z,17.59
2019-05-18T23:10:07.702Z,17.38
2019-05-18T23:12:35.148Z,17.20
2019-05-18T23:15:02.579Z,17.41
2019-05-18T23:17:29.988Z,17.35
2019-05-18T23:19:57.419Z,17.04
2019-05-18T23:22:24.852Z,16.87
2019-05-18T23:24:52.304Z,16.85
2019-05-18T23:27:19.684Z,16.92
2019-05-18T23:29:47.134Z,16.97
2019-05-18T23:32:14.602Z,16.80
2019-05-18T23:34:42.196Z,16.83
2019-05-18T23:37:09.716Z,16.78
2019-05-18T23:39:37.266Z,16.77
2019-05-18T23:42:04.778Z,16.75
2019-05-18T23:44:32.236Z,16.80
2019-05-18T23:46:59.606Z,16.77
2019-05-18T23:49:27.018Z,16.88
2019-05-18T23:51:54.552Z,16.83
2019-05-18T23:54:21.924Z,16.79
2019-05-18T23:56:49.354Z,16.73
2019-05-18T23:59:16.805Z,16.65
